createdAt,value
2023-03-15T00:00:38.480Z,10.49
2023-03-15T00:03:43.303Z,10.41
2023-03-15T00:06:49.074Z,10.43
2023-03-15T00:09:53.295Z,10.45
2023-03-15T00:12:57.768Z,9.95
2023-03-15T00:16:03.913Z,10.17
2023-03-15T00:19:08.062Z,9.88
2023-03-15T00:22:13.507Z,9.81
2023-03-15T00:25:17.589Z,9.84
2023-03-15T00:28:22.084Z,9.70
2023-03-15T00:31:28.487Z,9.43
2023-03-15T00:34:34.589Z,9.74
2023-03-15T00:37:40.294Z,9.92
2023-03-15T00:40:44.415Z,9.87
2023-03-15T00:43:48.963Z,9.65
2023-03-15T00:46:53.026Z,9.41
2023-03-15T00:49:57.134Z,8.92
2023-03-15T00:53:02.764Z,8.80
2023-03-15T00:56:08.129Z,8.95
2023-03-15T00:59:12.164Z,9.28
2023-03-15T01:02:16.636Z,9.46
2023-03-15T01:05:23.638Z,9.45
2023-03-15T01:08:29.478Z,9.35
2023-03-15T01:11:33.758Z,9.19
2023-03-15T01:14:39.419Z,9.27
2023-03-15T01:17:44.124Z,8.90
2023-03-15T01:20:48.308Z,9.38
2023-03-15T01:23:55.118Z,9.44
2023-03-15T01:26:59.339Z,9.70
2023-03-15T01:30:03.553Z,9.04
2023-03-15T01:33:07.727Z,9.58
2023-03-15T01:36:13.708Z,9.72
2023-03-15T01:39:19.618Z,9.66
2023-03-15T01:42:24.007Z,9.59
2023-03-15T01:46:01.721Z,9.32
2023-03-15T01:49:12.871Z,9.33
2023-03-15T01:52:23.865Z,9.25
2023-03-15T01:55:36.705Z,9.55
2023-03-15T01:58:49.454Z,9.45
2023-03-15T02:01:54.939Z,9.38
2023-03-15T02:05:04.656Z,9.25
2023-03-15T02:08:12.103Z,9.26
2023-03-15T02:11:21.086Z,9.37
2023-03-15T02:14:26.475Z,9.40
2023-03-15T02:17:38.888Z,9.11
2023-03-15T02:20:53.108Z,9.37
2023-03-15T02:24:12.515Z,9.35
2023-03-15T02:27:28.580Z,9.16
2023-03-15T02:30:32.669Z,9.09
2023-03-15T02:33:42.719Z,9.03
2023-03-15T02:36:46.755Z,8.90
2023-03-15T02:39:50.749Z,8.88
2023-03-15T02:43:01.135Z,8.97
2023-03-15T02:46:06.082Z,9.13
2023-03-15T02:49:11.884Z,9.11
2023-03-15T02:52:16.200Z,8.98
2023-03-15T02:55:22.191Z,9.10
2023-03-15T02:58:27.695Z,8.30
2023-03-15T03:01:32.010Z,8.72
2023-03-15T03:04:36.163Z,8.84
2023-03-15T03:07:40.721Z,8.47
2023-03-15T03:10:45.284Z,8.27
2023-03-15T03:13:51.622Z,8.32
2023-03-15T03:16:56.756Z,8.37
2023-03-15T03:20:01.405Z,8.31
2023-03-15T03:23:11.650Z,7.93
2023-03-15T03:26:17.707Z,7.85
2023-03-15T03:29:25.290Z,7.85
2023-03-15T03:32:31.256Z,8.01
2023-03-15T03:35:35.353Z,7.63
2023-03-15T03:38:39.704Z,7.44
2023-03-15T03:41:44.025Z,7.82
2023-03-15T03:44:51.900Z,7.46
2023-03-15T03:47:56.905Z,7.73
2023-03-15T03:51:01.195Z,7.31
2023-03-15T03:54:05.991Z,7.41
2023-03-15T03:57:10.459Z,7.55
2023-03-15T04:00:18.904Z,7.61
2023-03-15T04:03:27.620Z,7.59
2023-03-15T04:06:39.819Z,7.58
2023-03-15T04:09:43.812Z,7.71
2023-03-15T04:12:47.854Z,7.66
2023-03-15T04:15:58.028Z,7.97
2023-03-15T04:19:10.096Z,8.02
2023-03-15T04:22:15.784Z,7.70
2023-03-15T04:25:40.113Z,7.48
2023-03-15T04:29:09.186Z,7.86
2023-03-15T04:32:38.073Z,8.19
2023-03-15T04:36:03.164Z,8.35
2023-03-15T04:39:10.251Z,7.97
2023-03-15T04:42:29.362Z,7.71
2023-03-15T04:45:36.153Z,7.69
2023-03-15T04:49:00.086Z,7.56
2023-03-15T04:52:04.178Z,7.72
2023-03-15T04:55:31.090Z,7.69
2023-03-15T04:58:44.044Z,7.57
2023-03-15T05:02:06.493Z,8.00
2023-03-15T05:05:27.400Z,7.76
2023-03-15T05:08:39.968Z,8.07
2023-03-15T05:12:08.369Z,8.24
2023-03-15T05:15:32.626Z,8.05
2023-03-15T05:18:59.945Z,8.09
2023-03-15T05:22:26.037Z,7.95
2023-03-15T05:25:54.539Z,7.94
2023-03-15T05:29:24.402Z,7.60
2023-03-15T05:32:39.965Z,7.85
2023-03-15T05:36:04.002Z,8.00
2023-03-15T05:39:17.101Z,8.09
2023-03-15T05:42:33.565Z,7.99
2023-03-15T05:46:00.714Z,8.03
2023-03-15T05:49:20.327Z,7.73
2023-03-15T05:52:41.971Z,7.77
2023-03-15T05:55:54.762Z,7.71
2023-03-15T05:59:28.080Z,8.03
2023-03-15T06:02:54.398Z,8.14
2023-03-15T06:06:23.875Z,8.26
2023-03-15T06:09:28.455Z,8.41
2023-03-15T06:12:34.862Z,8.79
2023-03-15T06:15:39.827Z,9.25
2023-03-15T06:18:45.415Z,9.66
2023-03-15T06:21:49.832Z,9.83
2023-03-15T06:25:07.216Z,9.08
2023-03-15T06:28:12.973Z,9.80
2023-03-15T06:31:22.326Z,9.17
2023-03-15T06:34:33.806Z,9.64
2023-03-15T06:37:38.145Z,9.37
2023-03-15T06:40:45.663Z,9.25
2023-03-15T06:43:51.396Z,9.30
2023-03-15T06:46:55.612Z,9.11
2023-03-15T06:49:59.765Z,8.59
2023-03-15T06:53:04.271Z,9.13
2023-03-15T06:56:08.987Z,9.01
2023-03-15T06:59:14.777Z,9.88
2023-03-15T07:02:20.577Z,10.23
2023-03-15T07:05:25.009Z,10.43
2023-03-15T07:08:29.269Z,11.48
2023-03-15T07:11:33.570Z,11.72
2023-03-15T07:14:39.378Z,11.52
2023-03-15T07:17:43.718Z,11.33
2023-03-15T07:20:47.845Z,11.20
2023-03-15T07:23:52.059Z,9.83
2023-03-15T07:26:57.044Z,10.92
2023-03-15T07:30:02.672Z,10.67
2023-03-15T07:33:06.940Z,10.29
2023-03-15T07:36:11.344Z,10.69
2023-03-15T07:39:16.509Z,10.99
2023-03-15T07:42:20.740Z,11.53
2023-03-15T07:45:30.390Z,10.63
2023-03-15T07:48:34.618Z,11.06
2023-03-15T07:51:38.786Z,10.93
2023-03-15T07:54:42.929Z,11.30
2023-03-15T07:57:49.561Z,11.39
2023-03-15T08:00:58.138Z,11.14
2023-03-15T08:04:02.346Z,11.44
2023-03-15T08:07:06.714Z,11.78
2023-03-15T08:10:11.925Z,11.80
2023-03-15T08:13:16.236Z,11.69
2023-03-15T08:16:22.062Z,11.93
2023-03-15T08:19:26.495Z,11.96
2023-03-15T08:22:31.003Z,12.06
2023-03-15T08:25:35.460Z,12.37
2023-03-15T08:28:39.676Z,13.19
2023-03-15T08:31:45.318Z,13.35
2023-03-15T08:34:49.800Z,13.19
2023-03-15T08:37:53.910Z,12.60
2023-03-15T08:40:58.739Z,12.38
2023-03-15T08:44:03.257Z,12.43
2023-03-15T08:47:09.116Z,11.87
2023-03-15T08:50:15.693Z,11.68
2023-03-15T08:53:19.980Z,12.19
2023-03-15T08:56:24.205Z,11.35
2023-03-15T08:59:32.107Z,11.57
2023-03-15T09:02:39.117Z,11.60
2023-03-15T09:05:43.448Z,12.15
2023-03-15T09:08:47.707Z,11.86
2023-03-15T09:11:51.880Z,12.39
2023-03-15T09:14:56.078Z,13.33
2023-03-15T09:18:01.642Z,14.03
2023-03-15T09:21:07.745Z,14.36
2023-03-15T09:24:11.836Z,14.40
2023-03-15T09:27:16.072Z,15.26
2023-03-15T09:30:21.024Z,14.46
2023-03-15T09:33:26.819Z,14.48
2023-03-15T09:36:31.788Z,15.11
2023-03-15T09:39:36.869Z,15.17
2023-03-15T09:42:58.014Z,15.05
2023-03-15T09:46:12.740Z,15.34
2023-03-15T09:49:27.570Z,14.92
2023-03-15T09:52:44.166Z,14.99
2023-03-15T09:55:52.699Z,15.08
2023-03-15T09:58:59.914Z,15.08
2023-03-15T10:02:18.255Z,15.32
2023-03-15T10:05:27.958Z,16.31
2023-03-15T10:08:32.053Z,16.53
2023-03-15T10:11:41.775Z,15.92
2023-03-15T10:15:03.223Z,15.43
2023-03-15T10:18:27.252Z,15.57
2023-03-15T10:21:42.131Z,14.95
2023-03-15T10:24:50.726Z,14.94
2023-03-15T10:27:58.428Z,14.83
2023-03-15T10:31:10.320Z,14.98
2023-03-15T10:34:15.900Z,15.15
2023-03-15T10:37:24.068Z,14.75
2023-03-15T10:40:42.245Z,14.63
2023-03-15T10:43:59.831Z,14.95
2023-03-15T10:47:21.939Z,15.37
2023-03-15T10:50:29.839Z,14.89
2023-03-15T10:53:36.235Z,14.87
2023-03-15T10:56:47.361Z,14.93
2023-03-15T11:00:00.190Z,14.53
2023-03-15T11:03:06.409Z,15.27
2023-03-15T11:06:23.057Z,15.28
2023-03-15T11:09:29.239Z,15.10
2023-03-15T11:12:35.329Z,14.56
2023-03-15T11:15:41.496Z,14.37
2023-03-15T11:18:49.159Z,14.82
2023-03-15T11:21:53.677Z,14.33
2023-03-15T11:24:59.552Z,14.51
2023-03-15T11:28:04.927Z,14.57
2023-03-15T11:31:09.359Z,14.63
2023-03-15T11:34:19.371Z,15.07
2023-03-15T11:37:27.595Z,15.14
2023-03-15T11:40:36.585Z,14.88
2023-03-15T11:43:50.144Z,14.84
2023-03-15T11:47:00.821Z,14.85
2023-03-15T11:50:05.690Z,14.87
2023-03-15T11:53:15.217Z,14.73
2023-03-15T11:56:27.122Z,14.99
2023-03-15T11:59:32.973Z,15.02
2023-03-15T12:02:49.380Z,14.58
2023-03-15T12:05:54.462Z,14.73
2023-03-15T12:08:58.672Z,14.83
2023-03-15T12:12:06.208Z,14.82
2023-03-15T12:15:46.544Z,14.84
2023-03-15T12:18:51.690Z,14.69
2023-03-15T12:21:58.528Z,14.53
2023-03-15T12:25:12.332Z,14.71
2023-03-15T12:28:25.367Z,14.48
2023-03-15T12:31:45.952Z,14.34
2023-03-15T12:34:51.725Z,14.27
2023-03-15T12:37:57.424Z,14.32
2023-03-15T12:41:01.622Z,14.54
2023-03-15T12:44:43.750Z,14.48
2023-03-15T12:47:48.646Z,14.14
2023-03-15T12:50:59.737Z,14.33
2023-03-15T12:54:06.177Z,14.34
2023-03-15T12:57:12.676Z,14.14
2023-03-15T13:00:22.444Z,14.32
2023-03-15T13:03:28.944Z,14.07
2023-03-15T13:07:02.996Z,14.25
2023-03-15T13:10:42.716Z,13.88
2023-03-15T13:14:14.248Z,14.15
2023-03-15T13:17:33.895Z,14.31
2023-03-15T13:20:44.225Z,14.24
2023-03-15T13:23:53.878Z,14.26
2023-03-15T13:27:05.082Z,14.48
2023-03-15T13:30:29.840Z,14.43
2023-03-15T13:33:35.753Z,14.40
2023-03-15T13:36:46.043Z,14.33
2023-03-15T13:39:59.280Z,14.44
2023-03-15T13:43:03.613Z,14.35
2023-03-15T13:46:08.180Z,14.61
2023-03-15T13:49:14.979Z,14.77
2023-03-15T13:52:19.883Z,14.68
2023-03-15T13:55:25.657Z,14.61
2023-03-15T13:58:30.819Z,14.66
2023-03-15T14:01:42.804Z,14.47
2023-03-15T14:04:53.657Z,14.56
2023-03-15T14:08:03.041Z,14.59
2023-03-15T14:11:11.816Z,14.49
2023-03-15T14:14:23.719Z,14.63
2023-03-15T14:17:29.879Z,14.40
2023-03-15T14:20:41.781Z,14.50
2023-03-15T14:23:48.810Z,14.65
2023-03-15T14:26:55.551Z,14.57
2023-03-15T14:30:01.206Z,14.68
2023-03-15T14:33:09.100Z,14.72
2023-03-15T14:36:27.343Z,14.81
2023-03-15T14:39:33.683Z,14.98
2023-03-15T14:42:37.892Z,15.04
2023-03-15T14:45:44.275Z,14.93
2023-03-15T14:48:48.751Z,14.80
2023-03-15T14:51:57.769Z,15.07
2023-03-15T14:55:03.044Z,15.08
2023-03-15T14:58:13.761Z,15.12
2023-03-15T15:01:22.795Z,15.18
2023-03-15T15:04:33.823Z,15.04
2023-03-15T15:07:39.455Z,14.65
2023-03-15T15:10:45.949Z,14.73
2023-03-15T15:13:50.473Z,14.82
2023-03-15T15:16:54.683Z,14.65
2023-03-15T15:19:58.984Z,14.58
2023-03-15T15:23:04.872Z,14.61
2023-03-15T15:26:16.976Z,14.66
2023-03-15T15:29:21.747Z,14.65
2023-03-15T15:32:26.094Z,14.68
2023-03-15T15:35:30.250Z,14.74
2023-03-15T15:38:39.210Z,14.74
2023-03-15T15:41:43.447Z,14.62
2023-03-15T15:44:47.579Z,14.58
2023-03-15T15:47:52.320Z,14.65
2023-03-15T15:50:56.515Z,14.69
2023-03-15T15:54:03.139Z,14.58
2023-03-15T15:57:08.604Z,14.62
2023-03-15T16:00:18.455Z,14.29
2023-03-15T16:03:22.717Z,14.36
2023-03-15T16:06:27.669Z,14.44
2023-03-15T16:09:36.426Z,14.46
2023-03-15T16:12:40.469Z,14.39
2023-03-15T16:15:44.880Z,14.37
2023-03-15T16:18:49.149Z,14.36
2023-03-15T16:21:54.844Z,14.29
2023-03-15T16:25:01.876Z,14.23
2023-03-15T16:28:08.283Z,14.18
2023-03-15T16:31:12.821Z,14.25
2023-03-15T16:34:18.487Z,14.23
2023-03-15T16:37:25.627Z,14.11
2023-03-15T16:40:34.111Z,13.98
2023-03-15T16:43:38.354Z,13.99
2023-03-15T16:46:42.758Z,13.99
2023-03-15T16:49:46.877Z,13.92
2023-03-15T16:52:55.797Z,13.87
2023-03-15T16:56:01.441Z,13.90
2023-03-15T16:59:06.325Z,13.77
2023-03-15T17:02:19.746Z,13.88
2023-03-15T17:05:25.222Z,13.78
2023-03-15T17:08:29.692Z,13.91
2023-03-15T17:11:36.509Z,13.91
2023-03-15T17:14:41.469Z,13.97
2023-03-15T17:17:45.788Z,13.99
2023-03-15T17:20:51.121Z,13.91
2023-03-15T17:23:56.162Z,13.96
2023-03-15T17:27:01.786Z,13.89
2023-03-15T17:30:16.139Z,13.85
2023-03-15T17:33:20.291Z,13.86
2023-03-15T17:36:26.987Z,13.83
2023-03-15T17:39:31.349Z,13.76
2023-03-15T17:42:36.970Z,13.82
2023-03-15T17:45:41.309Z,13.86
2023-03-15T17:48:45.508Z,13.90
2023-03-15T17:51:49.675Z,13.95
2023-03-15T17:54:53.997Z,13.89
2023-03-15T17:57:59.607Z,13.88
2023-03-15T18:01:04.869Z,13.90
2023-03-15T18:04:12.255Z,13.81
2023-03-15T18:07:16.478Z,13.89
2023-03-15T18:10:24.327Z,13.86
2023-03-15T18:13:30.381Z,13.83
2023-03-15T18:16:34.565Z,13.76
2023-03-15T18:19:38.726Z,13.80
2023-03-15T18:22:43.078Z,13.80
2023-03-15T18:25:47.261Z,13.70
2023-03-15T18:28:53.118Z,13.53
2023-03-15T18:31:57.369Z,13.64
2023-03-15T18:35:01.786Z,13.68
2023-03-15T18:38:06.880Z,13.72
2023-03-15T18:41:20.500Z,13.74
2023-03-15T18:44:26.458Z,13.68
2023-03-15T18:47:30.751Z,13.62
2023-03-15T18:50:35.713Z,13.53
2023-03-15T18:53:40.284Z,13.59
2023-03-15T18:56:45.038Z,13.59
2023-03-15T18:59:50.607Z,13.57
2023-03-15T19:02:56.699Z,13.61
2023-03-15T19:06:06.306Z,13.58
2023-03-15T19:09:10.663Z,13.47
2023-03-15T19:12:14.895Z,13.41
2023-03-15T19:15:21.931Z,13.35
2023-03-15T19:18:26.852Z,13.22
2023-03-15T19:21:31.097Z,13.32
2023-03-15T19:24:36.656Z,13.37
2023-03-15T19:27:40.964Z,13.33
2023-03-15T19:30:46.619Z,13.42
2023-03-15T19:33:50.703Z,13.42
2023-03-15T19:36:54.864Z,13.39
2023-03-15T19:39:59.182Z,13.11
2023-03-15T19:43:03.433Z,13.29
2023-03-15T19:46:09.212Z,13.32
2023-03-15T19:49:13.506Z,13.27
2023-03-15T19:52:17.824Z,13.29
2023-03-15T19:55:22.894Z,13.25
2023-03-15T19:58:27.203Z,13.23
2023-03-15T20:01:33.592Z,13.14
2023-03-15T20:04:38.237Z,12.91
2023-03-15T20:07:43.391Z,12.72
2023-03-15T20:10:49.046Z,12.83
2023-03-15T20:13:53.959Z,12.92
2023-03-15T20:16:59.780Z,12.95
2023-03-15T20:20:06.273Z,13.00
2023-03-15T20:23:10.342Z,13.14
2023-03-15T20:26:17.173Z,13.13
2023-03-15T20:29:22.649Z,13.13
2023-03-15T20:32:28.314Z,12.99
2023-03-15T20:35:32.404Z,13.05
2023-03-15T20:38:37.615Z,13.18
2023-03-15T20:41:41.817Z,13.15
2023-03-15T20:44:45.980Z,13.06
2023-03-15T20:47:51.781Z,12.96
2023-03-15T20:50:57.013Z,12.90
2023-03-15T20:54:01.229Z,12.79
2023-03-15T20:57:06.827Z,12.66
2023-03-15T21:00:18.526Z,12.60
2023-03-15T21:03:24.801Z,12.69
2023-03-15T21:06:28.859Z,12.57
2023-03-15T21:09:33.227Z,12.32
2023-03-15T21:12:37.825Z,12.34
2023-03-15T21:15:46.123Z,12.69
2023-03-15T21:18:55.092Z,12.64
2023-03-15T21:21:59.444Z,12.64
2023-03-15T21:25:03.810Z,12.61
2023-03-15T21:28:07.893Z,12.26
2023-03-15T21:31:12.261Z,12.50
2023-03-15T21:34:18.233Z,12.57
2023-03-15T21:37:22.397Z,12.59
2023-03-15T21:40:26.871Z,12.58
2023-03-15T21:43:33.113Z,12.23
2023-03-15T21:46:37.700Z,12.25
2023-03-15T21:49:45.205Z,12.16
2023-03-15T21:52:49.320Z,12.37
2023-03-15T21:55:58.126Z,12.39
2023-03-15T21:59:02.252Z,12.25
2023-03-15T22:02:08.355Z,12.32
2023-03-15T22:05:15.218Z,12.27
2023-03-15T22:08:19.475Z,11.93
2023-03-15T22:11:23.662Z,12.03
2023-03-15T22:14:28.097Z,12.19
2023-03-15T22:18:27.007Z,12.05
2023-03-15T22:21:51.405Z,12.02
2023-03-15T22:24:55.779Z,11.86
2023-03-15T22:28:00.010Z,11.89
2023-03-15T22:31:04.338Z,11.79
2023-03-15T22:34:09.081Z,11.76
2023-03-15T22:37:15.049Z,11.63
2023-03-15T22:40:19.333Z,11.58
2023-03-15T22:43:23.565Z,11.44
2023-03-15T22:46:27.981Z,11.59
2023-03-15T22:49:32.082Z,11.71
2023-03-15T22:52:37.579Z,11.85
2023-03-15T22:55:41.677Z,11.94
2023-03-15T22:58:47.523Z,11.98
2023-03-15T23:01:51.775Z,11.92
2023-03-15T23:04:56.424Z,11.87
2023-03-15T23:08:02.108Z,11.78
2023-03-15T23:11:06.548Z,11.79
2023-03-15T23:14:10.599Z,11.72
2023-03-15T23:17:14.760Z,11.78
2023-03-15T23:20:20.126Z,11.47
2023-03-15T23:23:27.348Z,11.58
2023-03-15T23:26:37.602Z,11.60
2023-03-15T23:29:53.711Z,11.76
2023-03-15T23:32:59.106Z,11.80
2023-03-15T23:36:03.746Z,11.68
2023-03-15T23:39:09.601Z,11.65
2023-03-15T23:42:14.291Z,11.81
2023-03-15T23:45:18.451Z,11.94
2023-03-15T23:48:22.741Z,11.64
2023-03-15T23:51:26.953Z,11.89
2023-03-15T23:54:32.815Z,11.84
2023-03-15T23:57:36.841Z,11.92
